createdAt,value
2019-03-19T00:00:47.167Z,1001.34
2019-03-19T00:01:47.153Z,1001.38
2019-03-19T00:02:47.188Z,1001.37
2019-03-19T00:03:47.226Z,1001.42
2019-03-19T00:04:47.258Z,1001.39
2019-03-19T00:05:47.293Z,1001.37
2019-03-19T00:06:47.338Z,1001.41
2019-03-19T00:07:47.365Z,1001.43
2019-03-19T00:08:47.400Z,1001.49
2019-03-19T00:09:47.436Z,1001.49
2019-03-19T00:10:47.469Z,1001.57
2019-03-19T00:11:47.507Z,1001.57
2019-03-19T00:12:47.541Z,1001.64
2019-03-19T00:13:47.574Z,1001.66
2019-03-19T00:14:47.622Z,1001.66
2019-03-19T00:15:47.654Z,1001.66
2019-03-19T00:16:47.684Z,1001.68
2019-03-19T00:17:47.717Z,1001.65
2019-03-19T00:18:47.754Z,1001.66
2019-03-19T00:19:47.793Z,1001.71
2019-03-19T00:20:47.826Z,1001.70
2019-03-19T00:21:47.858Z,1001.75
2019-03-19T00:22:47.893Z,1001.71
2019-03-19T00:23:47.930Z,1001.71
2019-03-19T00:24:48.022Z,1001.68
2019-03-19T00:25:47.997Z,1001.69
2019-03-19T00:26:48.031Z,1001.68
2019-03-19T00:27:48.069Z,1001.70
2019-03-19T00:28:48.106Z,1001.68
2019-03-19T00:29:48.139Z,1001.70
2019-03-19T00:30:48.177Z,1001.73
2019-03-19T00:31:48.210Z,1001.74
2019-03-19T00:32:48.253Z,1001.72
2019-03-19T00:33:48.277Z,1001.69
2019-03-19T00:34:48.321Z,1001.68
2019-03-19T00:35:48.350Z,1001.69
2019-03-19T00:36:48.434Z,1001.69
2019-03-19T00:37:48.422Z,1001.66
2019-03-19T00:38:48.455Z,1001.68
2019-03-19T00:39:48.487Z,1001.69
2019-03-19T00:40:48.531Z,1001.70
2019-03-19T00:41:48.560Z,1001.69
2019-03-19T00:42:48.594Z,1001.71
2019-03-19T00:43:48.629Z,1001.69
2019-03-19T00:44:48.666Z,1001.74
2019-03-19T00:45:48.698Z,1001.78
2019-03-19T00:46:48.734Z,1001.80
2019-03-19T00:47:48.769Z,1001.80
2019-03-19T00:48:48.805Z,1001.82
2019-03-19T00:49:48.839Z,1001.85
2019-03-19T00:50:48.873Z,1001.79
2019-03-19T00:51:48.909Z,1001.78
2019-03-19T00:52:48.945Z,1001.84
2019-03-19T00:53:48.980Z,1001.82
2019-03-19T00:54:49.026Z,1001.82
2019-03-19T00:55:49.050Z,1001.86
2019-03-19T00:56:49.086Z,1001.89
2019-03-19T00:57:49.221Z,1001.93
2019-03-19T00:58:49.155Z,1001.90
2019-03-19T00:59:49.214Z,1001.93
2019-03-19T01:00:49.224Z,1001.94
2019-03-19T01:01:49.267Z,1001.91
2019-03-19T01:02:49.308Z,1001.94
2019-03-19T01:03:49.329Z,1001.94
2019-03-19T01:04:49.374Z,1001.92
2019-03-19T01:05:49.397Z,1001.93
2019-03-19T01:06:49.435Z,1001.90
2019-03-19T01:07:49.469Z,1001.91
2019-03-19T01:08:49.503Z,1001.93
2019-03-19T01:09:49.538Z,1001.96
2019-03-19T01:10:49.575Z,1001.95
2019-03-19T01:11:49.616Z,1001.93
2019-03-19T01:12:49.645Z,1001.96
2019-03-19T01:13:49.729Z,1001.90
2019-03-19T01:14:49.714Z,1001.92
2019-03-19T01:15:49.751Z,1001.95
2019-03-19T01:16:49.788Z,1001.92
2019-03-19T01:17:49.823Z,1001.91
2019-03-19T01:18:49.854Z,1001.93
2019-03-19T01:19:49.890Z,1001.91
2019-03-19T01:20:49.925Z,1001.97
2019-03-19T01:21:49.957Z,1001.93
2019-03-19T01:22:49.993Z,1001.96
2019-03-19T01:23:50.030Z,1001.96
2019-03-19T01:24:50.063Z,1001.98
2019-03-19T01:25:55.600Z,1001.95
2019-03-19T01:26:50.134Z,1001.95
2019-03-19T01:27:50.170Z,1001.95
2019-03-19T01:28:50.215Z,1001.91
2019-03-19T01:29:50.239Z,1001.90
2019-03-19T01:30:50.280Z,1001.93
2019-03-19T01:31:50.317Z,1001.87
2019-03-19T01:32:50.343Z,1001.91
2019-03-19T01:33:50.378Z,1001.90
2019-03-19T01:34:50.412Z,1001.89
2019-03-19T01:35:50.450Z,1001.89
2019-03-19T01:36:50.484Z,1001.90
2019-03-19T01:37:50.518Z,1001.91
2019-03-19T01:38:50.552Z,1001.98
2019-03-19T01:39:50.594Z,1001.96
2019-03-19T01:40:50.625Z,1001.99
2019-03-19T01:41:50.657Z,1002.02
2019-03-19T01:42:50.700Z,1001.97
2019-03-19T01:43:50.726Z,1001.97
2019-03-19T01:44:50.761Z,1002.03
2019-03-19T01:45:50.797Z,1002.01
2019-03-19T01:46:50.830Z,1002.01
2019-03-19T01:47:50.875Z,1001.96
2019-03-19T01:48:50.902Z,1002.06
2019-03-19T01:49:50.937Z,1001.96
2019-03-19T01:50:50.975Z,1001.98
2019-03-19T01:51:51.013Z,1002.01
2019-03-19T01:52:51.040Z,1002.06
2019-03-19T01:53:51.081Z,1002.02
2019-03-19T01:54:51.111Z,1002.01
2019-03-19T01:55:51.149Z,1002.05
2019-03-19T01:56:51.182Z,1002.06
2019-03-19T01:57:51.215Z,1002.05
2019-03-19T01:58:51.250Z,1002.09
2019-03-19T01:59:51.292Z,1002.12
2019-03-19T02:00:51.323Z,1002.05
2019-03-19T02:01:51.361Z,1002.12
2019-03-19T02:02:51.390Z,1002.14
2019-03-19T02:03:51.426Z,1002.17
2019-03-19T02:04:51.468Z,1002.25
2019-03-19T02:05:51.496Z,1002.24
2019-03-19T02:06:51.537Z,1002.24
2019-03-19T02:07:51.565Z,1002.23
2019-03-19T02:08:51.600Z,1002.23
2019-03-19T02:09:51.635Z,1002.24
2019-03-19T02:10:51.670Z,1002.23
2019-03-19T02:11:51.706Z,1002.22
2019-03-19T02:12:51.741Z,1002.27
2019-03-19T02:13:51.776Z,1002.24
2019-03-19T02:14:51.807Z,1002.26
2019-03-19T02:15:51.857Z,1002.23
2019-03-19T02:16:51.878Z,1002.33
2019-03-19T02:17:51.913Z,1002.29
2019-03-19T02:18:51.948Z,1002.33
2019-03-19T02:19:51.991Z,1002.32
2019-03-19T02:20:52.020Z,1002.34
2019-03-19T02:21:52.060Z,1002.31
2019-03-19T02:22:52.087Z,1002.28
2019-03-19T02:23:52.123Z,1002.31
2019-03-19T02:24:52.157Z,1002.30
2019-03-19T02:25:52.191Z,1002.37
2019-03-19T02:26:52.228Z,1002.42
2019-03-19T02:27:52.270Z,1002.41
2019-03-19T02:28:52.298Z,1002.43
2019-03-19T02:29:52.330Z,1002.46
2019-03-19T02:30:52.369Z,1002.44
2019-03-19T02:31:52.404Z,1002.43
2019-03-19T02:32:52.439Z,1002.42
2019-03-19T02:33:52.474Z,1002.44
2019-03-19T02:34:52.505Z,1002.46
2019-03-19T02:35:52.548Z,1002.41
2019-03-19T02:36:52.576Z,1002.40
2019-03-19T02:37:52.611Z,1002.46
2019-03-19T02:38:52.647Z,1002.48
2019-03-19T02:39:52.683Z,1002.47
2019-03-19T02:40:52.715Z,1002.45
2019-03-19T02:41:52.750Z,1002.45
2019-03-19T02:42:52.802Z,1002.49
2019-03-19T02:43:52.832Z,1002.48
2019-03-19T02:44:52.866Z,1002.46
2019-03-19T02:45:52.892Z,1002.50
2019-03-19T02:46:52.926Z,1002.50
2019-03-19T02:47:52.958Z,1002.49
2019-03-19T02:48:52.995Z,1002.44
2019-03-19T02:49:53.038Z,1002.45
2019-03-19T02:50:53.063Z,1002.46
2019-03-19T02:51:53.096Z,1002.46
2019-03-19T02:52:53.142Z,1002.43
2019-03-19T02:53:53.166Z,1002.46
2019-03-19T02:54:53.202Z,1002.54
2019-03-19T02:55:53.237Z,1002.56
2019-03-19T02:56:53.272Z,1002.59
2019-03-19T02:57:53.307Z,1002.67
2019-03-19T02:58:53.343Z,1002.65
2019-03-19T02:59:53.376Z,1002.65
2019-03-19T03:00:53.412Z,1002.66
2019-03-19T03:01:53.447Z,1002.63
2019-03-19T03:02:53.489Z,1002.63
2019-03-19T03:03:53.513Z,1002.67
2019-03-19T03:04:53.551Z,1002.70
2019-03-19T03:05:53.598Z,1002.72
2019-03-19T03:06:53.620Z,1002.72
2019-03-19T03:07:53.660Z,1002.68
2019-03-19T03:08:53.690Z,1002.67
2019-03-19T03:09:53.722Z,1002.66
2019-03-19T03:10:53.813Z,1002.71
2019-03-19T03:11:53.792Z,1002.71
2019-03-19T03:12:53.828Z,1002.72
2019-03-19T03:13:53.876Z,1002.70
2019-03-19T03:14:53.895Z,1002.69
2019-03-19T03:15:53.932Z,1002.70
2019-03-19T03:16:53.971Z,1002.77
2019-03-19T03:17:53.999Z,1002.77
2019-03-19T03:18:54.033Z,1002.81
2019-03-19T03:19:54.070Z,1002.86
2019-03-19T03:20:54.110Z,1002.89
2019-03-19T03:21:54.140Z,1002.90
2019-03-19T03:22:54.182Z,1002.92
2019-03-19T03:23:54.215Z,1002.90
2019-03-19T03:24:54.245Z,1002.92
2019-03-19T03:25:54.277Z,1002.96
2019-03-19T03:26:54.314Z,1003.00
2019-03-19T03:27:54.398Z,1003.07
2019-03-19T03:28:54.384Z,1003.06
2019-03-19T03:29:54.423Z,1003.05
2019-03-19T03:30:54.472Z,1003.05
2019-03-19T03:31:54.484Z,1003.07
2019-03-19T03:32:54.521Z,1003.05
2019-03-19T03:33:54.564Z,1002.99
2019-03-19T03:34:54.601Z,1002.98
2019-03-19T03:35:54.637Z,1003.05
2019-03-19T03:36:54.658Z,1003.00
2019-03-19T03:37:54.694Z,1003.10
2019-03-19T03:38:54.735Z,1003.06
2019-03-19T03:39:54.818Z,1003.06
2019-03-19T03:40:54.800Z,1003.05
2019-03-19T03:41:54.834Z,1003.08
2019-03-19T03:42:54.871Z,1003.04
2019-03-19T03:43:54.904Z,1003.11
2019-03-19T03:44:54.935Z,1003.12
2019-03-19T03:45:54.971Z,1003.15
2019-03-19T03:46:55.006Z,1003.18
2019-03-19T03:47:55.045Z,1003.24
2019-03-19T03:48:55.080Z,1003.25
2019-03-19T03:49:55.111Z,1003.25
2019-03-19T03:50:55.150Z,1003.27
2019-03-19T03:51:55.197Z,1003.21
2019-03-19T03:52:55.214Z,1003.23
2019-03-19T03:53:55.249Z,1003.25
2019-03-19T03:54:55.284Z,1003.26
2019-03-19T03:55:55.323Z,1003.32
2019-03-19T03:57:01.749Z,1003.33
2019-03-19T03:57:55.389Z,1003.34
2019-03-19T03:59:00.916Z,1003.38
2019-03-19T03:59:55.468Z,1003.39
2019-03-19T04:00:55.496Z,1003.40
2019-03-19T04:01:55.527Z,1003.46
2019-03-19T04:02:55.563Z,1003.45
2019-03-19T04:03:55.597Z,1003.45
2019-03-19T04:04:55.632Z,1003.40
2019-03-19T04:05:55.669Z,1003.39
2019-03-19T04:06:55.712Z,1003.41
2019-03-19T04:07:55.741Z,1003.39
2019-03-19T04:08:55.776Z,1003.43
2019-03-19T04:09:55.810Z,1003.46
2019-03-19T04:10:55.847Z,1003.50
2019-03-19T04:11:55.878Z,1003.57
2019-03-19T04:12:55.916Z,1003.59
2019-03-19T04:13:55.949Z,1003.60
2019-03-19T04:14:55.985Z,1003.57
2019-03-19T04:15:56.022Z,1003.61
2019-03-19T04:16:56.054Z,1003.61
2019-03-19T04:17:56.087Z,1003.61
2019-03-19T04:18:56.132Z,1003.61
2019-03-19T04:19:56.373Z,1003.53
2019-03-19T04:20:56.199Z,1003.54
2019-03-19T04:21:56.228Z,1003.52
2019-03-19T04:22:56.266Z,1003.52
2019-03-19T04:23:56.318Z,1003.58
2019-03-19T04:24:56.333Z,1003.58
2019-03-19T04:25:56.366Z,1003.61
2019-03-19T04:26:56.401Z,1003.56
2019-03-19T04:27:56.445Z,1003.55
2019-03-19T04:28:56.472Z,1003.55
2019-03-19T04:29:56.504Z,1003.53
2019-03-19T04:30:56.542Z,1003.52
2019-03-19T04:31:56.573Z,1003.49
2019-03-19T04:32:56.616Z,1003.50
2019-03-19T04:33:56.648Z,1003.51
2019-03-19T04:34:56.677Z,1003.60
2019-03-19T04:35:56.710Z,1003.60
2019-03-19T04:36:56.748Z,1003.64
2019-03-19T04:37:56.782Z,1003.59
2019-03-19T04:38:56.822Z,1003.60
2019-03-19T04:39:56.850Z,1003.60
2019-03-19T04:40:56.885Z,1003.62
2019-03-19T04:41:56.920Z,1003.56
2019-03-19T04:42:56.957Z,1003.61
2019-03-19T04:43:56.988Z,1003.57
2019-03-19T04:44:57.025Z,1003.59
2019-03-19T04:45:57.058Z,1003.56
2019-03-19T04:46:57.092Z,1003.59
2019-03-19T04:47:57.129Z,1003.59
2019-03-19T04:48:57.163Z,1003.55
2019-03-19T04:49:57.198Z,1003.54
2019-03-19T04:50:57.232Z,1003.60
2019-03-19T04:51:57.267Z,1003.60
2019-03-19T04:52:57.306Z,1003.54
2019-03-19T04:53:57.335Z,1003.56
2019-03-19T04:54:57.373Z,1003.56
2019-03-19T04:55:57.405Z,1003.58
2019-03-19T04:56:57.440Z,1003.54
2019-03-19T04:57:57.476Z,1003.56
2019-03-19T04:58:57.511Z,1003.57
2019-03-19T04:59:59.080Z,1003.55
2019-03-19T05:00:57.731Z,1003.58
2019-03-19T05:01:57.613Z,1003.59
2019-03-19T05:02:57.651Z,1003.64
2019-03-19T05:03:57.703Z,1003.63
2019-03-19T05:04:57.718Z,1003.67
2019-03-19T05:05:59.532Z,1003.69
2019-03-19T05:06:57.794Z,1003.74
2019-03-19T05:07:57.820Z,1003.70
2019-03-19T05:08:57.855Z,1003.73
2019-03-19T05:09:57.891Z,1003.74
2019-03-19T05:10:57.936Z,1003.73
2019-03-19T05:11:57.971Z,1003.74
2019-03-19T05:12:58.013Z,1003.74
2019-03-19T05:13:58.034Z,1003.71
2019-03-19T05:14:58.062Z,1003.73
2019-03-19T05:15:58.097Z,1003.71
2019-03-19T05:16:58.133Z,1003.71
2019-03-19T05:17:58.167Z,1003.70
2019-03-19T05:18:58.200Z,1003.68
2019-03-19T05:19:58.235Z,1003.67
2019-03-19T05:20:58.271Z,1003.70
2019-03-19T05:21:58.304Z,1003.73
2019-03-19T05:22:58.341Z,1003.74
2019-03-19T05:23:58.373Z,1003.80
2019-03-19T05:24:58.408Z,1003.82
2019-03-19T05:25:58.443Z,1003.83
2019-03-19T05:26:58.534Z,1003.79
2019-03-19T05:27:58.511Z,1003.82
2019-03-19T05:28:58.546Z,1003.82
2019-03-19T05:29:58.583Z,1003.85
2019-03-19T05:30:58.619Z,1003.81
2019-03-19T05:31:58.650Z,1003.80
2019-03-19T05:32:58.688Z,1003.80
2019-03-19T05:33:58.719Z,1003.84
2019-03-19T05:34:58.756Z,1003.85
2019-03-19T05:35:58.789Z,1003.84
2019-03-19T05:36:58.826Z,1003.85
2019-03-19T05:37:58.858Z,1003.88
2019-03-19T05:38:58.907Z,1003.87
2019-03-19T05:39:58.929Z,1003.91
2019-03-19T05:40:58.963Z,1003.94
2019-03-19T05:41:58.993Z,1003.94
2019-03-19T05:42:59.030Z,1003.96
2019-03-19T05:43:59.065Z,1003.96
2019-03-19T05:44:59.097Z,1003.98
2019-03-19T05:45:59.147Z,1004.02
2019-03-19T05:46:59.167Z,1004.03
2019-03-19T05:47:59.202Z,1004.09
2019-03-19T05:48:59.237Z,1004.11
2019-03-19T05:49:59.269Z,1004.10
2019-03-19T05:50:59.304Z,1004.12
2019-03-19T05:51:59.339Z,1004.17
2019-03-19T05:52:59.376Z,1004.13
2019-03-19T05:53:59.410Z,1004.18
2019-03-19T05:54:59.448Z,1004.13
2019-03-19T05:55:59.478Z,1004.10
2019-03-19T05:56:59.515Z,1004.14
2019-03-19T05:57:59.545Z,1004.13
2019-03-19T05:58:59.581Z,1004.12
2019-03-19T05:59:59.615Z,1004.16
2019-03-19T06:00:59.655Z,1004.20
2019-03-19T06:01:59.686Z,1004.23
2019-03-19T06:02:59.718Z,1004.25
2019-03-19T06:03:59.760Z,1004.26
2019-03-19T06:04:59.791Z,1004.26
2019-03-19T06:05:59.824Z,1004.29
2019-03-19T06:06:59.864Z,1004.26
2019-03-19T06:07:59.893Z,1004.27
2019-03-19T06:08:59.975Z,1004.29
2019-03-19T06:09:59.960Z,1004.32
2019-03-19T06:10:59.996Z,1004.33
2019-03-19T06:12:00.030Z,1004.32
2019-03-19T06:13:00.067Z,1004.38
2019-03-19T06:14:00.098Z,1004.35
2019-03-19T06:15:00.316Z,1004.42
2019-03-19T06:16:00.168Z,1004.43
2019-03-19T06:17:00.209Z,1004.45
2019-03-19T06:18:00.240Z,1004.40
2019-03-19T06:19:00.271Z,1004.46
2019-03-19T06:20:00.308Z,1004.51
2019-03-19T06:21:00.349Z,1004.53
2019-03-19T06:22:00.376Z,1004.56
2019-03-19T06:23:00.414Z,1004.55
2019-03-19T06:24:00.446Z,1004.58
2019-03-19T06:25:00.481Z,1004.56
2019-03-19T06:26:00.516Z,1004.58
2019-03-19T06:27:00.553Z,1004.62
2019-03-19T06:28:01.022Z,1004.63
2019-03-19T06:29:00.627Z,1004.66
2019-03-19T06:30:00.651Z,1004.68
2019-03-19T06:31:00.737Z,1004.66
2019-03-19T06:32:00.724Z,1004.67
2019-03-19T06:33:00.797Z,1004.66
2019-03-19T06:34:00.791Z,1004.62
2019-03-19T06:35:00.829Z,1004.66
2019-03-19T06:36:00.861Z,1004.65
2019-03-19T06:37:00.909Z,1004.65
2019-03-19T06:38:00.930Z,1004.66
2019-03-19T06:39:00.969Z,1004.68
2019-03-19T06:40:01.000Z,1004.71
2019-03-19T06:41:01.035Z,1004.72
2019-03-19T06:42:01.069Z,1004.73
2019-03-19T06:43:01.112Z,1004.73
2019-03-19T06:44:01.241Z,1004.77
2019-03-19T06:45:01.175Z,1004.77
2019-03-19T06:46:01.214Z,1004.78
2019-03-19T06:47:01.245Z,1004.80
2019-03-19T06:48:01.279Z,1004.75
2019-03-19T06:49:01.317Z,1004.76
2019-03-19T06:50:01.351Z,1004.77
2019-03-19T06:51:01.382Z,1004.78
2019-03-19T06:52:01.426Z,1004.79
2019-03-19T06:53:01.455Z,1004.73
2019-03-19T06:54:01.498Z,1004.77
2019-03-19T06:55:01.525Z,1004.73
2019-03-19T06:56:01.558Z,1004.78
2019-03-19T06:57:01.593Z,1004.76
2019-03-19T06:58:10.573Z,1004.77
2019-03-19T06:59:01.666Z,1004.78
2019-03-19T07:00:01.700Z,1004.80
2019-03-19T07:01:01.735Z,1004.82
2019-03-19T07:02:01.777Z,1004.82
2019-03-19T07:03:01.814Z,1004.84
2019-03-19T07:04:01.842Z,1004.91
2019-03-19T07:05:01.894Z,1004.88
2019-03-19T07:06:01.907Z,1004.88
2019-03-19T07:07:01.943Z,1004.89
2019-03-19T07:08:01.979Z,1004.88
2019-03-19T07:09:02.013Z,1004.88
2019-03-19T07:10:02.050Z,1004.87
2019-03-19T07:11:02.092Z,1004.82
2019-03-19T07:12:02.120Z,1004.87
2019-03-19T07:13:02.154Z,1004.82
2019-03-19T07:14:02.189Z,1004.85
2019-03-19T07:15:02.227Z,1004.84
2019-03-19T07:16:02.260Z,1004.86
2019-03-19T07:17:02.300Z,1004.82
2019-03-19T07:18:02.330Z,1004.80
2019-03-19T07:19:02.363Z,1004.85
2019-03-19T07:20:02.455Z,1004.83
2019-03-19T07:21:02.442Z,1004.84
2019-03-19T07:22:02.469Z,1004.84
2019-03-19T07:23:02.507Z,1004.86
2019-03-19T07:24:02.546Z,1004.91
2019-03-19T07:25:02.579Z,1004.92
2019-03-19T07:26:02.610Z,1004.91
2019-03-19T07:27:02.645Z,1004.96
2019-03-19T07:28:02.680Z,1004.94
2019-03-19T07:29:02.715Z,1004.97
2019-03-19T07:30:02.750Z,1004.97
2019-03-19T07:31:02.785Z,1004.99
2019-03-19T07:32:02.825Z,1004.98
2019-03-19T07:33:02.856Z,1005.03
2019-03-19T07:34:02.899Z,1005.05
2019-03-19T07:35:02.931Z,1005.07
2019-03-19T07:36:02.961Z,1005.09
2019-03-19T07:37:03.006Z,1005.04
2019-03-19T07:38:03.030Z,1005.05
2019-03-19T07:39:03.169Z,1005.06
2019-03-19T07:40:03.111Z,1005.09
2019-03-19T07:41:03.141Z,1005.08
2019-03-19T07:42:03.173Z,1005.13
2019-03-19T07:43:03.209Z,1005.12
2019-03-19T07:44:03.247Z,1005.21
2019-03-19T07:45:03.290Z,1005.24
2019-03-19T07:46:03.319Z,1005.24
2019-03-19T07:47:03.351Z,1005.26
2019-03-19T07:48:03.399Z,1005.29
2019-03-19T07:49:03.424Z,1005.28
2019-03-19T07:50:03.466Z,1005.28
2019-03-19T07:51:03.493Z,1005.29
2019-03-19T07:52:03.538Z,1005.31
2019-03-19T07:53:03.573Z,1005.32
2019-03-19T07:54:03.599Z,1005.29
2019-03-19T07:55:03.635Z,1005.30
2019-03-19T07:56:03.685Z,1005.31
2019-03-19T07:57:03.705Z,1005.36
2019-03-19T07:58:03.740Z,1005.35
2019-03-19T07:59:03.779Z,1005.33
2019-03-19T08:00:03.814Z,1005.38
2019-03-19T08:01:03.850Z,1005.43
2019-03-19T08:02:03.884Z,1005.45
2019-03-19T08:03:03.922Z,1005.45
2019-03-19T08:04:05.017Z,1005.45
2019-03-19T08:05:03.991Z,1005.49
2019-03-19T08:06:04.040Z,1005.53
2019-03-19T08:07:04.066Z,1005.52
2019-03-19T08:08:04.098Z,1005.56
2019-03-19T08:09:04.134Z,1005.59
2019-03-19T08:10:04.244Z,1005.56
2019-03-19T08:11:04.207Z,1005.58
2019-03-19T08:12:04.242Z,1005.58
2019-03-19T08:13:04.278Z,1005.61
2019-03-19T08:14:04.313Z,1005.53
2019-03-19T08:15:04.349Z,1005.57
2019-03-19T08:16:04.383Z,1005.59
2019-03-19T08:17:04.422Z,1005.62
2019-03-19T08:18:04.465Z,1005.62
2019-03-19T08:19:04.491Z,1005.62
2019-03-19T08:20:04.535Z,1005.61
2019-03-19T08:21:04.568Z,1005.61
2019-03-19T08:22:04.699Z,1005.63
2019-03-19T08:23:04.640Z,1005.67
2019-03-19T08:24:04.673Z,1005.72
2019-03-19T08:25:04.721Z,1005.74
2019-03-19T08:26:04.746Z,1005.72
2019-03-19T08:27:04.783Z,1005.74
2019-03-19T08:28:04.815Z,1005.79
2019-03-19T08:29:04.952Z,1005.76
2019-03-19T08:30:04.885Z,1005.74
2019-03-19T08:31:04.925Z,1005.71
2019-03-19T08:32:04.959Z,1005.74
2019-03-19T08:33:04.995Z,1005.81
2019-03-19T08:34:05.032Z,1005.75
2019-03-19T08:35:05.071Z,1005.74
2019-03-19T08:36:09.310Z,1005.76
2019-03-19T08:37:05.147Z,1005.74
2019-03-19T08:38:05.177Z,1005.76
2019-03-19T08:39:05.211Z,1005.77
2019-03-19T08:40:05.256Z,1005.75
2019-03-19T08:41:05.284Z,1005.78
2019-03-19T08:42:05.319Z,1005.79
2019-03-19T08:43:05.356Z,1005.78
2019-03-19T08:44:05.402Z,1005.81
2019-03-19T08:45:05.480Z,1005.78
2019-03-19T08:46:05.467Z,1005.76
2019-03-19T08:47:05.501Z,1005.73
2019-03-19T08:48:05.539Z,1005.73
2019-03-19T08:49:05.583Z,1005.72
2019-03-19T08:50:05.610Z,1005.75
2019-03-19T08:51:05.651Z,1005.72
2019-03-19T08:52:05.681Z,1005.72
2019-03-19T08:53:05.725Z,1005.72
2019-03-19T08:54:05.755Z,1005.72
2019-03-19T08:55:05.804Z,1005.76
2019-03-19T08:56:05.831Z,1005.72
2019-03-19T08:57:05.867Z,1005.77
2019-03-19T08:58:05.901Z,1005.77
2019-03-19T08:59:06.322Z,1005.77
2019-03-19T09:00:05.975Z,1005.78
2019-03-19T09:01:06.013Z,1005.79
2019-03-19T09:02:06.048Z,1005.73
2019-03-19T09:03:06.084Z,1005.70
2019-03-19T09:04:06.122Z,1005.76
2019-03-19T09:05:06.164Z,1005.77
2019-03-19T09:06:06.219Z,1005.73
2019-03-19T09:07:06.238Z,1005.73
2019-03-19T09:08:06.267Z,1005.78
2019-03-19T09:09:06.311Z,1005.72
2019-03-19T09:10:06.356Z,1005.75
2019-03-19T09:11:06.377Z,1005.76
2019-03-19T09:12:06.415Z,1005.70
2019-03-19T09:13:06.457Z,1005.74
2019-03-19T09:14:06.492Z,1005.75
2019-03-19T09:15:06.533Z,1005.76
2019-03-19T09:16:06.573Z,1005.73
2019-03-19T09:17:06.599Z,1005.74
2019-03-19T09:18:06.635Z,1005.82
2019-03-19T09:19:06.822Z,1005.80
2019-03-19T09:20:06.710Z,1005.82
2019-03-19T09:21:06.746Z,1005.81
2019-03-19T09:22:06.781Z,1005.84
2019-03-19T09:23:06.820Z,1005.79
2019-03-19T09:24:06.859Z,1005.78
2019-03-19T09:25:06.901Z,1005.85
2019-03-19T09:26:06.933Z,1005.87
2019-03-19T09:27:06.967Z,1005.88
2019-03-19T09:28:07.005Z,1005.87
2019-03-19T09:29:16.447Z,1005.93
2019-03-19T09:30:07.079Z,1005.97
2019-03-19T09:31:07.117Z,1006.06
2019-03-19T09:32:07.162Z,1005.97
2019-03-19T09:33:07.191Z,1006.01
2019-03-19T09:34:07.227Z,1006.02
2019-03-19T09:35:07.270Z,1006.00
2019-03-19T09:36:07.303Z,1005.99
2019-03-19T09:37:07.338Z,1005.96
2019-03-19T09:38:07.377Z,1005.94
2019-03-19T09:39:07.414Z,1005.99
2019-03-19T09:40:07.450Z,1005.99
2019-03-19T09:41:07.500Z,1005.90
2019-03-19T09:42:07.525Z,1005.91
2019-03-19T09:43:07.563Z,1005.96
2019-03-19T09:44:07.600Z,1005.95
2019-03-19T09:45:07.637Z,1005.93
2019-03-19T09:46:07.675Z,1005.95
2019-03-19T09:47:07.711Z,1005.98
2019-03-19T09:48:07.758Z,1006.04
2019-03-19T09:49:07.789Z,1006.09
2019-03-19T09:50:07.884Z,1006.08
2019-03-19T09:51:07.863Z,1006.11
2019-03-19T09:52:07.906Z,1006.08
2019-03-19T09:53:07.941Z,1006.16
2019-03-19T09:54:07.976Z,1006.17
2019-03-19T09:55:08.015Z,1006.19
2019-03-19T09:56:08.053Z,1006.07
2019-03-19T09:57:08.098Z,1006.11
2019-03-19T09:58:08.130Z,1006.15
2019-03-19T09:59:08.166Z,1006.16
2019-03-19T10:00:08.205Z,1006.16
2019-03-19T10:01:08.242Z,1006.24
2019-03-19T10:02:08.281Z,1006.22
2019-03-19T10:03:08.319Z,1006.22
2019-03-19T10:04:08.358Z,1006.24
2019-03-19T10:05:08.394Z,1006.23
2019-03-19T10:06:14.016Z,1006.21
2019-03-19T10:07:08.478Z,1006.20
2019-03-19T10:08:08.508Z,1006.19
2019-03-19T10:09:08.551Z,1006.12
2019-03-19T10:10:08.585Z,1006.12
2019-03-19T10:11:08.624Z,1006.15
2019-03-19T10:12:08.663Z,1006.14
2019-03-19T10:13:08.707Z,1006.11
2019-03-19T10:14:08.742Z,1006.12
2019-03-19T10:15:08.780Z,1006.11
2019-03-19T10:16:08.866Z,1006.16
2019-03-19T10:17:08.854Z,1006.14
2019-03-19T10:18:08.899Z,1006.09
2019-03-19T10:19:08.931Z,1006.15
2019-03-19T10:20:08.969Z,1006.17
2019-03-19T10:21:09.009Z,1006.20
2019-03-19T10:22:09.046Z,1006.17
2019-03-19T10:23:09.086Z,1006.15
2019-03-19T10:24:09.125Z,1006.18
2019-03-19T10:25:09.172Z,1006.23
2019-03-19T10:26:09.201Z,1006.16
2019-03-19T10:27:09.242Z,1006.12
2019-03-19T10:28:09.281Z,1006.12
2019-03-19T10:29:09.322Z,1006.17
2019-03-19T10:30:09.455Z,1006.24
2019-03-19T10:31:09.398Z,1006.26
2019-03-19T10:32:09.435Z,1006.23
2019-03-19T10:33:09.472Z,1006.27
2019-03-19T10:34:09.510Z,1006.24
2019-03-19T10:35:09.552Z,1006.24
2019-03-19T10:36:09.595Z,1006.20
2019-03-19T10:37:09.786Z,1006.22
2019-03-19T10:38:09.666Z,1006.25
2019-03-19T10:39:09.704Z,1006.16
2019-03-19T10:40:09.758Z,1006.19
2019-03-19T10:41:09.805Z,1006.21
2019-03-19T10:42:09.818Z,1006.24
2019-03-19T10:43:09.860Z,1006.20
2019-03-19T10:44:09.906Z,1006.19
2019-03-19T10:45:09.941Z,1006.19
2019-03-19T10:46:09.975Z,1006.16
2019-03-19T10:47:10.013Z,1006.22
2019-03-19T10:48:10.060Z,1006.23
2019-03-19T10:49:10.092Z,1006.24
2019-03-19T10:50:10.131Z,1006.30
2019-03-19T10:51:10.186Z,1006.24
2019-03-19T10:52:10.208Z,1006.27
2019-03-19T10:53:10.276Z,1006.25
2019-03-19T10:54:10.285Z,1006.22
2019-03-19T10:55:10.332Z,1006.19
2019-03-19T10:56:10.369Z,1006.17
2019-03-19T10:57:10.404Z,1006.13
2019-03-19T10:58:11.457Z,1006.16
2019-03-19T10:59:10.497Z,1006.17
2019-03-19T11:00:10.521Z,1006.16
2019-03-19T11:01:10.564Z,1006.21
2019-03-19T11:02:10.599Z,1006.16
2019-03-19T11:03:10.656Z,1006.11
2019-03-19T11:04:10.678Z,1006.12
2019-03-19T11:05:10.726Z,1006.18
2019-03-19T11:06:10.771Z,1006.20
2019-03-19T11:07:10.797Z,1006.22
2019-03-19T11:08:10.835Z,1006.18
2019-03-19T11:09:10.874Z,1006.15
2019-03-19T11:10:10.923Z,1006.14
2019-03-19T11:11:10.952Z,1006.18
2019-03-19T11:12:10.995Z,1006.16
2019-03-19T11:13:11.035Z,1006.20
2019-03-19T11:14:11.071Z,1006.20
2019-03-19T11:15:11.108Z,1006.20
2019-03-19T11:16:11.146Z,1006.23
2019-03-19T11:17:11.254Z,1006.27
2019-03-19T11:18:11.227Z,1006.22
2019-03-19T11:19:11.264Z,1006.25
2019-03-19T11:20:11.307Z,1006.19
2019-03-19T11:21:11.342Z,1006.24
2019-03-19T11:22:11.384Z,1006.21
2019-03-19T11:23:11.421Z,1006.22
2019-03-19T11:24:11.460Z,1006.27
2019-03-19T11:25:11.501Z,1006.27
2019-03-19T11:26:11.543Z,1006.29
2019-03-19T11:27:11.586Z,1006.33
2019-03-19T11:28:13.797Z,1006.33
2019-03-19T11:29:11.660Z,1006.41
2019-03-19T11:30:11.694Z,1006.40
2019-03-19T11:31:11.735Z,1006.36
2019-03-19T11:32:11.775Z,1006.39
2019-03-19T11:33:11.814Z,1006.39
2019-03-19T11:34:11.853Z,1006.40
2019-03-19T11:35:11.892Z,1006.48
2019-03-19T11:36:11.940Z,1006.44
2019-03-19T11:37:11.971Z,1006.47
2019-03-19T11:38:12.010Z,1006.48
2019-03-19T11:39:12.052Z,1006.48
2019-03-19T11:40:12.092Z,1006.50
2019-03-19T11:41:12.132Z,1006.51
2019-03-19T11:42:12.180Z,1006.48
2019-03-19T11:43:12.209Z,1006.50
2019-03-19T11:44:12.259Z,1006.49
2019-03-19T11:45:12.291Z,1006.51
2019-03-19T11:46:12.330Z,1006.44
2019-03-19T11:47:12.379Z,1006.45
2019-03-19T11:48:12.413Z,1006.51
2019-03-19T11:49:12.463Z,1006.53
2019-03-19T11:50:12.495Z,1006.54
2019-03-19T11:51:12.534Z,1006.50
2019-03-19T11:52:12.574Z,1006.50
2019-03-19T11:53:12.616Z,1006.51
2019-03-19T11:54:12.655Z,1006.50
2019-03-19T11:55:12.709Z,1006.47
2019-03-19T11:56:12.738Z,1006.52
2019-03-19T11:57:12.777Z,1006.48
2019-03-19T11:58:12.820Z,1006.49
2019-03-19T11:59:12.860Z,1006.55
2019-03-19T12:00:12.899Z,1006.49
2019-03-19T12:01:12.939Z,1006.47
2019-03-19T12:02:12.993Z,1006.48
2019-03-19T12:03:16.378Z,1006.53
2019-03-19T12:04:13.061Z,1006.51
2019-03-19T12:05:13.103Z,1006.48
2019-03-19T12:06:13.142Z,1006.46